createdAt,value
2019-02-15T00:00:39.972Z,5.60
2019-02-15T00:03:09.284Z,5.60
2019-02-15T00:05:39.225Z,5.60
2019-02-15T00:08:08.828Z,5.60
2019-02-15T00:10:38.454Z,5.60
2019-02-15T00:13:13.609Z,5.60
2019-02-15T00:15:42.079Z,5.60
2019-02-15T00:18:13.022Z,5.60
2019-02-15T00:20:53.450Z,5.60
2019-02-15T00:23:22.752Z,5.50
2019-02-15T00:25:52.056Z,5.50
2019-02-15T00:28:21.406Z,5.50
2019-02-15T00:30:50.747Z,5.50
2019-02-15T00:33:20.084Z,5.50
2019-02-15T00:35:49.773Z,5.50
2019-02-15T00:38:19.100Z,5.50
2019-02-15T00:40:48.708Z,5.50
2019-02-15T00:43:22.297Z,5.60
2019-02-15T00:46:06.818Z,5.50
2019-02-15T00:48:36.455Z,5.40
2019-02-15T00:51:10.069Z,5.50
2019-02-15T00:53:41.045Z,5.50
2019-02-15T00:56:12.076Z,5.30
2019-02-15T00:58:43.025Z,5.40
2019-02-15T01:01:14.321Z,5.40
2019-02-15T01:03:48.332Z,5.40
2019-02-15T01:06:19.582Z,5.50
2019-02-15T01:09:02.790Z,5.40
2019-02-15T01:11:34.039Z,5.40
2019-02-15T01:14:03.335Z,5.40
2019-02-15T01:16:32.953Z,5.30
2019-02-15T01:19:02.565Z,5.30
2019-02-15T01:21:31.880Z,5.30
2019-02-15T01:24:01.573Z,5.30
2019-02-15T01:26:38.537Z,5.20
2019-02-15T01:29:09.549Z,5.10
2019-02-15T01:31:49.732Z,5.10
2019-02-15T01:34:29.531Z,5.20
2019-02-15T01:37:00.508Z,5.10
2019-02-15T01:39:37.412Z,5.10
2019-02-15T01:42:26.360Z,5.00
2019-02-15T01:45:03.351Z,4.90
2019-02-15T01:47:33.087Z,4.80
2019-02-15T01:50:08.080Z,4.90
2019-02-15T01:52:37.485Z,4.80
2019-02-15T01:55:07.587Z,4.80
2019-02-15T01:57:37.212Z,4.70
2019-02-15T02:00:12.415Z,4.60
2019-02-15T02:02:41.747Z,4.60
2019-02-15T02:05:11.083Z,4.50
2019-02-15T02:07:40.436Z,4.50
2019-02-15T02:10:11.080Z,4.50
2019-02-15T02:12:40.815Z,4.50
2019-02-15T02:15:11.071Z,4.40
2019-02-15T02:17:40.374Z,4.40
2019-02-15T02:20:10.430Z,4.30
2019-02-15T02:22:39.768Z,4.30
2019-02-15T02:25:09.314Z,4.20
2019-02-15T02:27:38.616Z,4.10
2019-02-15T02:30:09.636Z,4.10
2019-02-15T02:32:38.946Z,4.10
2019-02-15T02:35:09.552Z,4.10
2019-02-15T02:37:39.136Z,3.90
2019-02-15T02:40:09.408Z,3.90
2019-02-15T02:42:39.066Z,3.90
2019-02-15T02:45:09.384Z,3.90
2019-02-15T02:47:38.704Z,3.90
2019-02-15T02:50:08.813Z,3.90
2019-02-15T02:52:38.167Z,3.80
2019-02-15T02:55:07.470Z,3.90
2019-02-15T02:57:37.105Z,3.90
2019-02-15T03:00:07.083Z,3.70
2019-02-15T03:02:36.729Z,3.80
2019-02-15T03:05:06.878Z,3.80
2019-02-15T03:07:36.478Z,3.80
2019-02-15T03:10:07.401Z,3.90
2019-02-15T03:12:36.763Z,3.90
2019-02-15T03:15:07.595Z,3.90
2019-02-15T03:17:37.135Z,3.90
2019-02-15T03:20:08.051Z,3.80
2019-02-15T03:22:37.698Z,3.80
2019-02-15T03:25:07.171Z,3.80
2019-02-15T03:27:36.510Z,3.80
2019-02-15T03:30:09.797Z,3.90
2019-02-15T03:32:39.131Z,3.70
2019-02-15T03:35:10.171Z,3.70
2019-02-15T03:37:41.167Z,3.60
2019-02-15T03:40:18.718Z,3.60
2019-02-15T03:42:48.057Z,3.60
2019-02-15T03:45:18.383Z,3.60
2019-02-15T03:47:47.690Z,3.60
2019-02-15T03:50:17.106Z,3.60
2019-02-15T03:52:46.408Z,3.70
2019-02-15T03:55:15.961Z,3.70
2019-02-15T03:57:45.315Z,3.70
2019-02-15T04:00:14.624Z,3.60
2019-02-15T04:02:43.936Z,3.60
2019-02-15T04:05:13.307Z,3.60
2019-02-15T04:07:42.617Z,3.50
2019-02-15T04:10:11.923Z,3.60
2019-02-15T04:12:41.670Z,3.60
2019-02-15T04:15:10.969Z,3.70
2019-02-15T04:17:40.288Z,3.80
2019-02-15T04:20:10.649Z,3.90
2019-02-15T04:22:40.254Z,3.90
2019-02-15T04:25:09.633Z,3.90
2019-02-15T04:27:38.997Z,3.90
2019-02-15T04:30:11.451Z,3.90
2019-02-15T04:32:41.039Z,3.80
2019-02-15T04:35:10.627Z,3.80
2019-02-15T04:37:39.938Z,3.90
2019-02-15T04:40:10.380Z,3.90
2019-02-15T04:42:39.781Z,3.90
2019-02-15T04:45:10.522Z,3.80
2019-02-15T04:47:39.832Z,3.80
2019-02-15T04:50:10.332Z,3.80
2019-02-15T04:52:39.678Z,3.70
2019-02-15T04:55:09.053Z,3.70
2019-02-15T04:57:38.737Z,3.70
2019-02-15T05:00:10.336Z,3.70
2019-02-15T05:02:39.892Z,3.60
2019-02-15T05:05:09.617Z,3.60
2019-02-15T05:07:39.224Z,3.60
2019-02-15T05:10:08.566Z,3.60
2019-02-15T05:12:37.934Z,3.60
2019-02-15T05:15:09.395Z,3.60
2019-02-15T05:17:38.736Z,3.60
2019-02-15T05:20:08.930Z,3.60
2019-02-15T05:22:38.249Z,3.60
2019-02-15T05:25:07.785Z,3.60
2019-02-15T05:27:37.161Z,3.50
2019-02-15T05:30:08.699Z,3.50
2019-02-15T05:32:38.386Z,3.50
2019-02-15T05:35:07.968Z,3.50
2019-02-15T05:37:37.280Z,3.40
2019-02-15T05:40:07.536Z,3.40
2019-02-15T05:42:36.935Z,3.50
2019-02-15T05:45:07.086Z,3.50
2019-02-15T05:47:39.381Z,3.50
2019-02-15T05:50:09.411Z,3.60
2019-02-15T05:52:38.718Z,3.60
2019-02-15T05:55:08.088Z,3.60
2019-02-15T05:57:37.843Z,3.50
2019-02-15T06:00:10.262Z,3.40
2019-02-15T06:02:39.585Z,3.40
2019-02-15T06:05:09.880Z,3.40
2019-02-15T06:07:39.182Z,3.40
2019-02-15T06:10:09.641Z,3.30
2019-02-15T06:12:39.001Z,3.40
2019-02-15T06:15:15.212Z,3.30
2019-02-15T06:17:39.529Z,3.20
2019-02-15T06:20:09.606Z,3.20
2019-02-15T06:22:38.945Z,3.20
2019-02-15T06:25:08.332Z,3.20
2019-02-15T06:27:37.707Z,3.30
2019-02-15T06:30:09.524Z,3.30
2019-02-15T06:32:41.263Z,3.30
2019-02-15T06:35:10.752Z,3.30
2019-02-15T06:37:40.097Z,3.30
2019-02-15T06:40:09.625Z,3.20
2019-02-15T06:42:38.980Z,3.20
2019-02-15T06:45:08.730Z,3.30
2019-02-15T06:47:38.060Z,3.30
2019-02-15T06:50:08.649Z,3.40
2019-02-15T06:52:37.985Z,3.50
2019-02-15T06:55:08.063Z,3.50
2019-02-15T06:57:37.418Z,3.50
2019-02-15T07:00:29.568Z,3.50
2019-02-15T07:03:00.566Z,3.60
2019-02-15T07:05:29.897Z,3.70
2019-02-15T07:08:02.059Z,3.70
2019-02-15T07:10:31.765Z,3.80
2019-02-15T07:13:01.086Z,3.80
2019-02-15T07:15:33.702Z,3.80
2019-02-15T07:18:04.381Z,3.80
2019-02-15T07:20:33.748Z,3.90
2019-02-15T07:23:03.388Z,4.00
2019-02-15T07:25:32.927Z,4.00
2019-02-15T07:28:02.480Z,4.00
2019-02-15T07:30:31.784Z,4.00
2019-02-15T07:33:01.174Z,4.10
2019-02-15T07:35:30.498Z,4.20
2019-02-15T07:37:59.811Z,4.30
2019-02-15T07:40:29.176Z,4.20
2019-02-15T07:42:58.483Z,4.30
2019-02-15T07:45:27.813Z,4.30
2019-02-15T07:47:58.685Z,4.30
2019-02-15T07:50:28.076Z,4.30
2019-02-15T07:52:57.384Z,4.40
2019-02-15T07:55:26.743Z,4.40
2019-02-15T07:57:56.057Z,4.50
2019-02-15T08:00:25.384Z,4.60
2019-02-15T08:02:54.741Z,4.60
2019-02-15T08:05:24.045Z,4.70
2019-02-15T08:07:53.422Z,4.80
2019-02-15T08:10:22.772Z,4.80
2019-02-15T08:12:52.334Z,4.90
2019-02-15T08:15:21.671Z,4.90
2019-02-15T08:17:51.097Z,4.90
2019-02-15T08:20:20.426Z,5.00
2019-02-15T08:22:49.762Z,5.10
2019-02-15T08:25:19.116Z,5.20
2019-02-15T08:27:48.418Z,5.30
2019-02-15T08:30:17.753Z,5.30
2019-02-15T08:32:47.138Z,5.40
2019-02-15T08:35:16.438Z,5.40
2019-02-15T08:37:45.753Z,5.50
2019-02-15T08:40:15.106Z,5.50
2019-02-15T08:42:44.412Z,5.50
2019-02-15T08:45:14.119Z,5.60
2019-02-15T08:47:43.474Z,5.70
2019-02-15T08:50:13.694Z,5.70
2019-02-15T08:52:42.979Z,5.80
2019-02-15T08:55:12.971Z,5.90
2019-02-15T08:57:42.292Z,5.90
2019-02-15T09:00:14.715Z,6.00
2019-02-15T09:02:44.191Z,6.00
2019-02-15T09:05:13.827Z,6.10
2019-02-15T09:07:43.144Z,6.20
2019-02-15T09:10:13.973Z,6.20
2019-02-15T09:12:43.761Z,6.30
2019-02-15T09:15:20.380Z,6.30
2019-02-15T09:17:49.684Z,6.40
2019-02-15T09:20:19.077Z,6.50
2019-02-15T09:22:48.420Z,6.60
2019-02-15T09:25:17.730Z,6.60
2019-02-15T09:27:51.824Z,6.70
2019-02-15T09:30:21.184Z,6.80
2019-02-15T09:32:52.242Z,6.80
2019-02-15T09:35:21.600Z,6.90
2019-02-15T09:37:51.165Z,7.00
2019-02-15T09:40:20.538Z,7.00
2019-02-15T09:42:49.882Z,7.10
2019-02-15T09:45:19.191Z,7.10
2019-02-15T09:47:48.549Z,7.20
2019-02-15T09:50:17.884Z,7.30
2019-02-15T09:52:47.194Z,7.40
2019-02-15T09:55:16.550Z,7.40
2019-02-15T09:57:46.196Z,7.50
2019-02-15T10:00:15.497Z,7.70
2019-02-15T10:02:44.865Z,7.70
2019-02-15T10:05:14.511Z,7.70
2019-02-15T10:07:44.203Z,7.80
2019-02-15T10:10:13.573Z,7.90
2019-02-15T10:12:43.150Z,8.00
2019-02-15T10:15:13.120Z,8.00
2019-02-15T10:17:42.503Z,8.20
2019-02-15T10:20:11.815Z,8.20
2019-02-15T10:22:41.156Z,8.30
2019-02-15T10:25:11.579Z,8.40
2019-02-15T10:27:40.885Z,8.50
2019-02-15T10:30:13.208Z,8.50
2019-02-15T10:32:42.584Z,8.60
2019-02-15T10:35:12.209Z,8.70
2019-02-15T10:37:41.863Z,8.70
2019-02-15T10:40:12.253Z,8.90
2019-02-15T10:42:41.558Z,8.90
2019-02-15T10:45:16.302Z,9.00
2019-02-15T10:47:45.664Z,9.10
2019-02-15T10:50:14.981Z,9.10
2019-02-15T10:52:44.288Z,9.20
2019-02-15T10:55:14.125Z,9.30
2019-02-15T10:57:43.493Z,9.30
2019-02-15T11:00:19.329Z,9.40
2019-02-15T11:02:48.728Z,9.50
2019-02-15T11:05:19.092Z,9.50
2019-02-15T11:07:48.699Z,9.60
2019-02-15T11:10:18.060Z,9.70
2019-02-15T11:12:47.618Z,9.80
2019-02-15T11:15:18.237Z,10.00
2019-02-15T11:17:47.581Z,10.10
2019-02-15T11:20:19.993Z,10.20
2019-02-15T11:22:49.620Z,10.30
2019-02-15T11:25:18.985Z,10.30
2019-02-15T11:27:48.547Z,10.50
2019-02-15T11:30:18.325Z,10.60
2019-02-15T11:32:47.711Z,10.70
2019-02-15T11:35:17.023Z,10.80
2019-02-15T11:37:46.339Z,10.90
2019-02-15T11:40:16.281Z,11.00
2019-02-15T11:42:45.594Z,11.10
2019-02-15T11:45:15.845Z,11.20
2019-02-15T11:47:45.493Z,11.20
2019-02-15T11:50:16.644Z,11.40
2019-02-15T11:52:46.243Z,11.40
2019-02-15T11:55:15.593Z,11.50
2019-02-15T11:57:44.931Z,11.60
2019-02-15T12:00:31.175Z,11.80
2019-02-15T12:03:00.847Z,12.00
2019-02-15T12:05:30.411Z,12.10
2019-02-15T12:08:00.088Z,12.10
2019-02-15T12:10:29.407Z,12.20
2019-02-15T12:12:58.977Z,12.50
2019-02-15T12:15:28.612Z,12.50
2019-02-15T12:17:58.214Z,12.60
2019-02-15T12:20:27.912Z,12.70
2019-02-15T12:22:57.287Z,12.80
2019-02-15T12:25:26.595Z,12.90
2019-02-15T12:27:55.905Z,13.10
2019-02-15T12:30:25.515Z,13.20
2019-02-15T12:32:54.896Z,13.30
2019-02-15T12:35:24.218Z,13.40
2019-02-15T12:37:53.571Z,13.50
2019-02-15T12:40:22.907Z,13.60
2019-02-15T12:42:52.221Z,13.70
2019-02-15T12:45:21.615Z,13.80
2019-02-15T12:47:50.954Z,13.80
2019-02-15T12:50:21.862Z,13.90
2019-02-15T12:52:51.220Z,14.10
2019-02-15T12:55:20.533Z,14.10
2019-02-15T12:57:50.343Z,14.20
2019-02-15T13:00:19.919Z,14.40
2019-02-15T13:02:49.802Z,14.50
2019-02-15T13:05:19.143Z,14.60
2019-02-15T13:07:48.504Z,14.70
2019-02-15T13:10:22.528Z,14.80
2019-02-15T13:12:51.838Z,15.00
2019-02-15T13:15:21.201Z,15.00
2019-02-15T13:17:50.545Z,15.00
2019-02-15T13:20:20.221Z,15.10
2019-02-15T13:22:49.572Z,15.30
2019-02-15T13:25:18.884Z,15.50
2019-02-15T13:27:48.195Z,15.50
2019-02-15T13:30:17.913Z,15.60
2019-02-15T13:32:47.300Z,15.70
2019-02-15T13:35:21.660Z,15.90
2019-02-15T13:37:51.018Z,16.00
2019-02-15T13:40:20.335Z,16.10
2019-02-15T13:42:49.647Z,16.20
2019-02-15T13:45:19.005Z,16.40
2019-02-15T13:47:48.310Z,16.50
2019-02-15T13:50:19.180Z,16.60
2019-02-15T13:52:48.768Z,16.70
2019-02-15T13:55:18.113Z,16.70
2019-02-15T13:57:47.428Z,16.90
2019-02-15T14:00:16.862Z,16.90
2019-02-15T14:02:46.202Z,17.00
2019-02-15T14:05:15.726Z,17.10
2019-02-15T14:07:45.427Z,17.20
2019-02-15T14:10:15.783Z,17.30
2019-02-15T14:12:45.097Z,17.50
2019-02-15T14:15:14.456Z,17.50
2019-02-15T14:17:47.540Z,17.50
2019-02-15T14:20:15.274Z,17.40
2019-02-15T14:22:44.650Z,17.50
2019-02-15T14:25:14.091Z,17.70
2019-02-15T14:27:43.418Z,17.70
2019-02-15T14:30:14.879Z,17.70
2019-02-15T14:32:44.552Z,17.70
2019-02-15T14:35:15.141Z,17.80
2019-02-15T14:37:44.485Z,18.00
2019-02-15T14:40:15.118Z,18.00
2019-02-15T14:42:44.437Z,18.00
2019-02-15T14:45:14.944Z,18.00
2019-02-15T14:47:53.987Z,18.10
2019-02-15T14:50:16.129Z,18.20
2019-02-15T14:52:45.847Z,18.20
2019-02-15T14:55:15.605Z,18.20
2019-02-15T14:57:44.920Z,18.30
2019-02-15T15:00:15.706Z,18.10
2019-02-15T15:02:45.295Z,18.10
2019-02-15T15:05:15.325Z,18.00
2019-02-15T15:07:45.001Z,17.60
2019-02-15T15:10:14.355Z,17.20
2019-02-15T15:12:44.088Z,16.70
2019-02-15T15:15:16.389Z,16.40
2019-02-15T15:17:45.965Z,16.10
2019-02-15T15:20:15.310Z,15.90
2019-02-15T15:22:44.670Z,15.70
2019-02-15T15:25:15.687Z,15.60
2019-02-15T15:27:45.345Z,15.40
2019-02-15T15:30:19.160Z,15.30
2019-02-15T15:32:48.465Z,15.30
2019-02-15T15:35:17.804Z,15.20
2019-02-15T15:37:47.171Z,15.20
2019-02-15T15:40:17.828Z,15.20
2019-02-15T15:42:47.196Z,15.20
2019-02-15T15:45:16.868Z,15.30
2019-02-15T15:47:46.279Z,15.50
2019-02-15T15:50:15.634Z,16.00
2019-02-15T15:52:45.002Z,16.80
2019-02-15T15:55:17.532Z,17.50
2019-02-15T15:57:49.383Z,17.80
2019-02-15T16:00:18.734Z,17.80
2019-02-15T16:02:48.089Z,17.40
2019-02-15T16:05:17.363Z,17.00
2019-02-15T16:07:46.844Z,16.70
2019-02-15T16:10:16.802Z,16.30
2019-02-15T16:12:46.148Z,16.00
2019-02-15T16:15:16.028Z,15.70
2019-02-15T16:17:45.322Z,15.40
2019-02-15T16:20:15.290Z,15.20
2019-02-15T16:22:44.644Z,15.00
2019-02-15T16:25:14.304Z,14.70
2019-02-15T16:27:46.286Z,14.60
2019-02-15T16:30:17.193Z,14.50
2019-02-15T16:32:46.830Z,14.30
2019-02-15T16:35:16.128Z,14.10
2019-02-15T16:37:45.806Z,14.00
2019-02-15T16:40:16.289Z,13.90
2019-02-15T16:42:45.687Z,13.80
2019-02-15T16:45:16.698Z,13.70
2019-02-15T16:47:46.283Z,13.60
2019-02-15T16:50:15.600Z,13.50
2019-02-15T16:52:44.991Z,13.40
2019-02-15T16:55:14.253Z,13.30
2019-02-15T16:57:43.554Z,13.20
2019-02-15T17:00:14.631Z,13.10
2019-02-15T17:02:43.973Z,12.90
2019-02-15T17:05:13.399Z,12.90
2019-02-15T17:07:42.773Z,12.90
2019-02-15T17:10:12.496Z,12.80
2019-02-15T17:12:42.182Z,12.80
2019-02-15T17:15:14.767Z,12.80
2019-02-15T17:17:44.069Z,12.70
2019-02-15T17:20:13.387Z,12.70
2019-02-15T17:22:42.823Z,12.70
2019-02-15T17:25:12.960Z,12.60
2019-02-15T17:27:42.558Z,12.50
2019-02-15T17:30:12.773Z,12.40
2019-02-15T17:32:42.143Z,12.40
2019-02-15T17:35:12.497Z,12.30
2019-02-15T17:37:41.910Z,12.30
2019-02-15T17:40:16.813Z,12.30
2019-02-15T17:42:46.125Z,12.20
2019-02-15T17:45:15.571Z,12.20
2019-02-15T17:47:44.893Z,12.10
2019-02-15T17:50:14.574Z,12.10
2019-02-15T17:52:43.928Z,12.10
2019-02-15T17:55:13.305Z,12.00
2019-02-15T17:57:42.587Z,11.90
2019-02-15T18:00:17.630Z,11.90
2019-02-15T18:02:46.943Z,11.80
2019-02-15T18:05:16.427Z,11.70
2019-02-15T18:07:49.426Z,11.60
2019-02-15T18:10:18.756Z,11.50
2019-02-15T18:12:48.055Z,11.50
2019-02-15T18:15:17.422Z,11.40
2019-02-15T18:17:47.168Z,11.40
2019-02-15T18:20:16.748Z,11.40
2019-02-15T18:22:46.134Z,11.40
2019-02-15T18:25:15.518Z,11.30
2019-02-15T18:27:44.842Z,11.30
2019-02-15T18:30:17.005Z,11.30
2019-02-15T18:32:46.320Z,11.30
2019-02-15T18:35:15.728Z,11.30
2019-02-15T18:37:45.099Z,11.30
2019-02-15T18:40:14.699Z,11.20
2019-02-15T18:42:44.031Z,11.20
2019-02-15T18:45:17.611Z,11.20
2019-02-15T18:47:49.856Z,11.20
2019-02-15T18:50:19.139Z,11.10
2019-02-15T18:52:48.533Z,11.10
2019-02-15T18:55:17.844Z,11.10
2019-02-15T18:57:47.157Z,11.10
2019-02-15T19:00:18.208Z,11.10
2019-02-15T19:02:50.777Z,11.10
2019-02-15T19:05:20.101Z,11.10
2019-02-15T19:07:49.519Z,11.10
2019-02-15T19:10:22.808Z,11.10
2019-02-15T19:12:52.174Z,11.00
2019-02-15T19:15:41.237Z,11.00
2019-02-15T19:18:10.708Z,11.00
2019-02-15T19:20:40.054Z,10.90
2019-02-15T19:23:09.404Z,10.90
2019-02-15T19:25:38.759Z,10.90
2019-02-15T19:28:08.066Z,10.80
2019-02-15T19:30:38.213Z,10.80
2019-02-15T19:33:07.506Z,10.80
2019-02-15T19:35:36.815Z,10.70
2019-02-15T19:38:06.200Z,10.70
2019-02-15T19:40:35.503Z,10.70
2019-02-15T19:43:12.286Z,10.60
2019-02-15T19:45:41.757Z,10.60
2019-02-15T19:48:11.100Z,10.60
2019-02-15T19:50:40.439Z,10.60
2019-02-15T19:53:10.095Z,10.50
2019-02-15T19:55:39.401Z,10.40
2019-02-15T19:58:08.753Z,10.30
2019-02-15T20:00:38.110Z,10.30
2019-02-15T20:03:07.395Z,10.20
2019-02-15T20:05:36.743Z,10.20
2019-02-15T20:08:06.147Z,10.20
2019-02-15T20:10:35.517Z,10.10
2019-02-15T20:13:05.206Z,10.10
2019-02-15T20:15:34.773Z,10.10
2019-02-15T20:18:04.342Z,10.10
2019-02-15T20:20:33.757Z,10.10
2019-02-15T20:23:03.074Z,10.10
2019-02-15T20:25:32.482Z,10.00
2019-02-15T20:28:02.125Z,10.00
2019-02-15T20:30:31.715Z,10.00
2019-02-15T20:33:01.457Z,10.00
2019-02-15T20:35:30.818Z,10.00
2019-02-15T20:38:00.151Z,10.00
2019-02-15T20:40:29.536Z,9.90
2019-02-15T20:42:58.958Z,9.90
2019-02-15T20:45:28.682Z,9.90
2019-02-15T20:47:58.017Z,9.80
2019-02-15T20:50:27.368Z,9.90
2019-02-15T20:52:56.782Z,9.90
2019-02-15T20:55:26.556Z,9.80
2019-02-15T20:57:56.004Z,9.80
2019-02-15T21:00:30.300Z,9.70
2019-02-15T21:02:59.644Z,9.70
2019-02-15T21:05:28.954Z,9.70
2019-02-15T21:07:58.315Z,9.60
2019-02-15T21:10:28.021Z,9.50
2019-02-15T21:12:57.328Z,9.50
2019-02-15T21:15:27.722Z,9.50
2019-02-15T21:17:57.081Z,9.50
2019-02-15T21:20:26.738Z,9.50
2019-02-15T21:22:56.343Z,9.50
2019-02-15T21:25:27.700Z,9.40
2019-02-15T21:27:57.396Z,9.40
2019-02-15T21:30:27.034Z,9.40
2019-02-15T21:32:56.343Z,9.30
2019-02-15T21:35:25.662Z,9.30
2019-02-15T21:37:55.135Z,9.20
2019-02-15T21:40:24.438Z,9.10
2019-02-15T21:42:54.014Z,9.10
2019-02-15T21:45:23.401Z,9.10
2019-02-15T21:47:53.034Z,8.90
2019-02-15T21:50:25.500Z,8.80
2019-02-15T21:52:54.865Z,8.80
2019-02-15T21:55:24.177Z,8.70
2019-02-15T21:58:01.050Z,8.60
2019-02-15T22:00:27.076Z,8.50
2019-02-15T22:02:56.380Z,8.40
2019-02-15T22:05:25.732Z,8.40
2019-02-15T22:07:55.079Z,8.30
2019-02-15T22:10:24.384Z,8.20
2019-02-15T22:12:56.692Z,8.20
2019-02-15T22:15:26.067Z,8.20
2019-02-15T22:17:55.401Z,8.10
2019-02-15T22:20:26.947Z,8.20
2019-02-15T22:22:56.144Z,8.10
2019-02-15T22:25:25.731Z,8.00
2019-02-15T22:27:55.031Z,7.90
2019-02-15T22:30:25.385Z,8.00
2019-02-15T22:32:55.094Z,7.90
2019-02-15T22:35:24.411Z,8.00
2019-02-15T22:37:53.780Z,7.90
2019-02-15T22:40:29.648Z,8.00
2019-02-15T22:43:06.474Z,7.90
2019-02-15T22:45:35.779Z,7.90
2019-02-15T22:48:05.402Z,7.90
2019-02-15T22:50:36.360Z,7.90
2019-02-15T22:53:05.991Z,7.90
2019-02-15T22:55:35.644Z,7.80
2019-02-15T22:58:04.986Z,7.80
2019-02-15T23:00:40.615Z,7.70
2019-02-15T23:03:10.223Z,7.80
2019-02-15T23:05:39.847Z,7.80
2019-02-15T23:08:09.236Z,7.70
2019-02-15T23:10:38.544Z,7.70
2019-02-15T23:13:08.157Z,7.70
2019-02-15T23:15:37.477Z,7.70
2019-02-15T23:18:06.784Z,7.70
2019-02-15T23:20:44.650Z,7.60
2019-02-15T23:23:07.498Z,7.60
2019-02-15T23:25:36.804Z,7.50
2019-02-15T23:28:06.155Z,7.50
2019-02-15T23:30:35.802Z,7.40
2019-02-15T23:33:05.579Z,7.40
2019-02-15T23:35:34.924Z,7.30
2019-02-15T23:38:04.275Z,7.20
2019-02-15T23:40:33.566Z,7.10
2019-02-15T23:43:02.989Z,7.10
2019-02-15T23:45:32.629Z,7.10
2019-02-15T23:48:04.905Z,7.00
2019-02-15T23:50:34.840Z,7.00
2019-02-15T23:53:04.149Z,6.90
2019-02-15T23:55:33.723Z,6.80
2019-02-15T23:58:03.088Z,6.80
